Time;durP1;ratioP1;P1;durP2;ratioP2;P2;SDS_P1;SDS_P2;PMS_P1;PMS_P2;Temp;Humidity;BMP_temperature;BMP_pressure;BME280_temperature;BME280_humidity;BME280_pressure;Samples;Min_cycle;Max_cycle;Signal;HPM_P1;HPM_P2
2021/07/09 00:02:32;;;;;;;5.77;3.50;;;18.00;51.40;;;;;;5019551;28;20194;-88
2021/07/09 00:04:59;;;;;;;4.13;3.13;;;18.00;53.40;;;;;;5004821;28;20200;-88
2021/07/09 00:07:25;;;;;;;3.63;3.13;;;18.10;53.40;;;;;;5006066;28;20198;-88
2021/07/09 00:09:52;;;;;;;4.53;3.10;;;;;;;;;;5014824;28;21191;-88
2021/07/09 00:12:17;;;;;;;3.03;2.77;;;18.10;53.00;;;;;;5009945;28;20203;-88
2021/07/09 00:14:43;;;;;;;3.77;2.93;;;18.10;53.60;;;;;;5006118;28;20961;-88
2021/07/09 00:17:09;;;;;;;3.30;3.00;;;18.10;55.40;;;;;;5007796;28;20196;-88
2021/07/09 00:19:35;;;;;;;3.00;2.70;;;18.10;53.50;;;;;;5011919;28;20362;-88
2021/07/09 00:22:02;;;;;;;2.87;2.67;;;;;;;;;;5003337;28;20230;-88
2021/07/09 00:24:28;;;;;;;3.10;2.80;;;;;;;;;;5003653;28;20192;-88
2021/07/09 00:26:54;;;;;;;6.20;3.20;;;18.20;48.60;;;;;;4991990;28;20281;-88
2021/07/09 00:29:20;;;;;;;3.77;2.87;;;18.20;48.90;;;;;;5006549;28;20202;-87
2021/07/09 00:31:46;;;;;;;3.57;3.07;;;;;;;;;;4998431;28;20196;-88
2021/07/09 00:34:12;;;;;;;4.53;2.77;;;;;;;;;;5013670;28;20201;-88
2021/07/09 00:36:38;;;;;;;3.47;2.40;;;18.10;46.10;;;;;;5003114;28;20195;-88
2021/07/09 00:39:06;;;;;;;4.70;3.10;;;18.20;44.20;;;;;;4999858;28;20191;-88
2021/07/09 00:41:32;;;;;;;3.53;2.60;;;18.20;44.70;;;;;;5003597;28;20551;-88
2021/07/09 00:43:58;;;;;;;2.43;2.23;;;18.20;42.40;;;;;;5019516;28;20184;-88
2021/07/09 00:46:39;;;;;;;2.47;2.27;;;18.20;41.50;;;;;;5001319;28;20195;-88
2021/07/09 00:49:07;;;;;;;4.70;2.73;;;18.20;42.20;;;;;;5004541;28;20191;-88
2021/07/09 00:51:32;;;;;;;5.97;2.30;;;18.30;42.00;;;;;;5003288;28;20205;-88
2021/07/09 00:53:58;;;;;;;3.20;2.90;;;18.30;43.00;;;;;;5003746;28;20199;-88
2021/07/09 00:56:25;;;;;;;3.07;2.83;;;18.30;43.80;;;;;;5003420;28;20305;-88
2021/07/09 00:58:52;;;;;;;2.77;2.40;;;18.30;45.10;;;;;;5003930;28;20189;-88
2021/07/09 01:01:18;;;;;;;3.20;2.87;;;18.20;42.00;;;;;;5004375;28;20212;-88
2021/07/09 01:03:44;;;;;;;4.33;2.73;;;18.30;35.60;;;;;;5019672;28;20638;-88
2021/07/09 01:06:12;;;;;;;3.43;3.10;;;18.30;35.00;;;;;;4999632;28;20197;-88
2021/07/09 01:08:37;;;;;;;2.80;2.50;;;18.30;35.60;;;;;;5020645;28;20258;-88
2021/07/09 01:11:03;;;;;;;3.17;2.70;;;18.40;34.40;;;;;;5005647;28;20303;-87
2021/07/09 01:13:29;;;;;;;2.93;2.73;;;18.40;34.80;;;;;;5000647;28;20214;-88
2021/07/09 01:15:55;;;;;;;4.23;2.70;;;18.40;35.70;;;;;;4999584;28;20206;-87
2021/07/09 01:18:21;;;;;;;4.43;2.70;;;18.40;34.00;;;;;;5001164;28;20337;-88
2021/07/09 01:20:47;;;;;;;3.43;2.90;;;18.40;35.60;;;;;;5007118;28;20198;-88
2021/07/09 01:23:15;;;;;;;4.43;2.53;;;18.40;35.10;;;;;;5000714;28;20191;-87
2021/07/09 01:25:41;;;;;;;3.10;2.80;;;18.40;35.70;;;;;;5005009;28;20195;-88
2021/07/09 01:28:08;;;;;;;2.97;2.70;;;18.40;35.70;;;;;;5009563;28;20213;-88
2021/07/09 01:30:35;;;;;;;3.40;3.03;;;18.30;37.20;;;;;;5010432;28;20195;-88
2021/07/09 01:33:01;;;;;;;3.73;2.93;;;18.40;35.10;;;;;;5020090;28;20222;-88
2021/07/09 01:35:27;;;;;;;2.97;2.67;;;18.30;34.00;;;;;;5000226;28;20217;-88
2021/07/09 01:37:54;;;;;;;3.53;3.07;;;18.30;34.00;;;;;;5003844;28;20199;-88
2021/07/09 01:40:20;;;;;;;2.90;2.60;;;18.30;35.00;;;;;;5012757;28;20785;-88
2021/07/09 01:42:46;;;;;;;3.23;2.87;;;18.30;35.80;;;;;;5008832;28;20247;-88
2021/07/09 01:45:11;;;;;;;3.23;2.93;;;18.30;35.60;;;;;;5011219;28;20654;-88
2021/07/09 01:47:37;;;;;;;2.67;2.47;;;18.20;36.30;;;;;;5005123;28;20217;-88
2021/07/09 01:50:05;;;;;;;3.60;2.97;;;18.20;35.50;;;;;;5006101;28;20200;-88
2021/07/09 01:52:32;;;;;;;3.30;3.10;;;18.20;36.90;;;;;;4997662;28;20274;-88
2021/07/09 01:54:59;;;;;;;3.40;3.10;;;18.30;35.60;;;;;;5011003;28;20278;-87
2021/07/09 01:57:26;;;;;;;5.10;3.20;;;18.20;34.90;;;;;;5007214;28;20183;-88
2021/07/09 01:59:51;;;;;;;4.67;3.07;;;18.20;35.60;;;;;;5004145;28;20222;-89
2021/07/09 02:02:17;;;;;;;3.67;3.17;;;18.20;37.10;;;;;;5003424;28;20290;-88
2021/07/09 02:04:51;;;;;;;3.77;2.80;;;18.20;39.00;;;;;;5024233;28;20199;-88
2021/07/09 02:07:18;;;;;;;3.57;3.13;;;18.20;41.60;;;;;;5005861;28;20196;-88
2021/07/09 02:09:46;;;;;;;3.57;3.30;;;18.20;42.20;;;;;;5021249;28;20256;-88
2021/07/09 02:12:12;;;;;;;4.00;3.23;;;18.10;47.20;;;;;;5005908;28;20195;-88
2021/07/09 02:14:39;;;;;;;4.90;3.60;;;18.10;51.20;;;;;;5006544;28;20271;-88
2021/07/09 02:17:07;;;;;;;3.87;3.57;;;18.00;50.30;;;;;;5007036;28;20210;-88
2021/07/09 02:19:33;;;;;;;5.50;3.23;;;18.00;52.70;;;;;;5017230;28;20191;-88
2021/07/09 02:22:01;;;;;;;3.97;3.60;;;17.90;54.80;;;;;;5008569;28;20198;-88
2021/07/09 02:24:27;;;;;;;7.53;3.80;;;17.80;56.90;;;;;;4999302;28;20194;-88
2021/07/09 02:26:53;;;;;;;6.37;4.53;;;17.70;58.00;;;;;;5001749;28;20195;-88
2021/07/09 02:29:19;;;;;;;6.10;5.23;;;17.80;60.30;;;;;;5006707;28;20197;-88
2021/07/09 02:31:44;;;;;;;7.90;5.43;;;17.70;62.50;;;;;;5002592;28;20208;-88
2021/07/09 02:34:10;;;;;;;8.90;6.57;;;17.60;65.20;;;;;;5008683;28;20202;-88
2021/07/09 02:36:35;;;;;;;6.67;5.97;;;17.60;66.60;;;;;;5004493;28;20619;-88
2021/07/09 02:39:01;;;;;;;6.77;5.53;;;17.70;68.70;;;;;;5012400;28;20286;-88
2021/07/09 02:41:27;;;;;;;10.27;6.57;;;;;;;;;;5003900;28;20237;-88
2021/07/09 02:43:53;;;;;;;7.83;6.03;;;17.40;69.50;;;;;;5016399;28;20190;-88
2021/07/09 02:46:19;;;;;;;6.20;4.83;;;17.40;70.50;;;;;;4996564;28;20200;-88
2021/07/09 02:48:44;;;;;;;5.77;4.80;;;17.30;70.30;;;;;;4998131;28;20249;-88
2021/07/09 02:51:10;;;;;;;8.33;4.83;;;17.30;70.40;;;;;;5003772;28;20737;-88
2021/07/09 02:53:35;;;;;;;4.97;4.57;;;17.50;71.80;;;;;;5017308;28;20205;-88
2021/07/09 02:56:01;;;;;;;5.43;4.30;;;17.20;72.00;;;;;;5008248;28;20581;-87
2021/07/09 02:58:26;;;;;;;5.67;4.73;;;17.10;71.60;;;;;;5009589;28;20189;-88
2021/07/09 03:00:52;;;;;;;5.10;4.53;;;17.00;72.40;;;;;;5018898;28;20241;-88
2021/07/09 03:03:18;;;;;;;6.73;4.67;;;16.90;73.00;;;;;;5003307;28;20220;-88
2021/07/09 03:05:43;;;;;;;5.47;4.87;;;17.00;74.10;;;;;;5008288;28;20207;-88
2021/07/09 03:08:09;;;;;;;5.47;4.67;;;16.80;69.40;;;;;;5007792;28;20187;-87
2021/07/09 03:10:34;;;;;;;6.30;4.73;;;17.00;70.80;;;;;;5002960;28;20196;-87
2021/07/09 03:13:00;;;;;;;5.40;4.57;;;16.90;72.10;;;;;;5022886;28;20197;-88
2021/07/09 03:15:26;;;;;;;9.07;5.47;;;16.90;70.60;;;;;;5020351;28;20732;-87
2021/07/09 03:17:51;;;;;;;5.60;5.10;;;17.00;70.60;;;;;;5007232;28;20252;-88
2021/07/09 03:20:17;;;;;;;7.03;5.00;;;17.00;71.70;;;;;;5023676;28;20190;-88
2021/07/09 03:22:43;;;;;;;5.87;4.50;;;17.00;72.20;;;;;;5010500;28;20204;-88
2021/07/09 03:25:09;;;;;;;5.70;4.73;;;15.30;69.30;;;;;;4989783;28;20645;-88
2021/07/09 03:27:36;;;;;;;6.27;4.87;;;17.00;71.60;;;;;;5008261;28;20217;-88
2021/07/09 03:30:02;;;;;;;5.80;4.90;;;17.00;71.80;;;;;;5011384;28;20205;-87
2021/07/09 03:32:28;;;;;;;5.97;5.10;;;17.00;70.10;;;;;;5011994;28;20198;-88
2021/07/09 03:34:53;;;;;;;5.03;4.53;;;16.80;69.90;;;;;;5003798;28;20187;-88
2021/07/09 03:37:19;;;;;;;5.40;4.70;;;16.90;68.90;;;;;;5007524;28;20201;-88
2021/07/09 03:39:45;;;;;;;5.27;4.77;;;16.90;69.50;;;;;;5006945;28;20637;-89
2021/07/09 03:42:10;;;;;;;6.33;5.00;;;17.00;69.60;;;;;;5011360;28;20185;-88
2021/07/09 03:44:36;;;;;;;5.00;4.50;;;17.00;70.10;;;;;;5029543;28;20528;-88
2021/07/09 03:47:01;;;;;;;5.00;4.33;;;16.90;68.30;;;;;;5024483;28;20202;-88
2021/07/09 03:49:27;;;;;;;7.03;4.77;;;17.00;68.70;;;;;;5014239;28;20218;-88
2021/07/09 03:51:53;;;;;;;4.67;4.27;;;17.10;67.90;;;;;;5006639;28;20201;-89
2021/07/09 03:54:18;;;;;;;5.80;4.70;;;17.00;68.00;;;;;;5010288;28;20193;-89
2021/07/09 03:56:44;;;;;;;6.43;4.90;;;16.90;66.70;;;;;;5005226;28;20222;-88
2021/07/09 03:59:10;;;;;;;5.40;4.90;;;16.90;65.70;;;;;;5021272;28;20221;-89
2021/07/09 04:01:35;;;;;;;6.60;5.10;;;16.90;66.10;;;;;;5011046;28;20198;-89
2021/07/09 04:04:01;;;;;;;5.43;4.90;;;17.00;66.00;;;;;;5004710;28;20211;-88
2021/07/09 04:06:26;;;;;;;5.93;5.30;;;17.00;62.70;;;;;;5003528;28;20235;-89
2021/07/09 04:08:52;;;;;;;6.27;5.60;;;17.00;62.10;;;;;;5006814;28;20312;-88
2021/07/09 04:11:18;;;;;;;7.97;5.37;;;17.10;62.50;;;;;;5015546;28;20191;-88
2021/07/09 04:13:43;;;;;;;5.40;4.90;;;17.00;62.70;;;;;;5006827;28;20226;-88
2021/07/09 04:16:09;;;;;;;5.37;4.87;;;17.00;62.40;;;;;;5012457;28;20239;-88
2021/07/09 04:18:35;;;;;;;4.80;4.40;;;17.10;62.70;;;;;;5008299;28;20249;-88
2021/07/09 04:21:01;;;;;;;6.40;5.23;;;17.10;63.60;;;;;;5012633;28;20229;-88
2021/07/09 04:23:27;;;;;;;7.43;5.10;;;17.10;66.20;;;;;;5006582;28;20726;-89
2021/07/09 04:25:52;;;;;;;5.50;4.93;;;17.00;68.70;;;;;;5000870;28;20200;-88
2021/07/09 04:28:18;;;;;;;5.63;4.70;;;17.00;70.10;;;;;;5026095;28;20212;-88
2021/07/09 04:30:43;;;;;;;5.03;4.53;;;17.00;72.00;;;;;;5012393;28;20709;-88
2021/07/09 04:33:09;;;;;;;6.30;5.67;;;17.10;73.10;;;;;;5008233;28;20194;-89
2021/07/09 04:35:35;;;;;;;6.37;5.13;;;17.00;75.20;;;;;;5006684;28;20223;-88
2021/07/09 04:38:01;;;;;;;6.53;5.30;;;17.10;69.50;;;;;;5010032;28;20188;-89
2021/07/09 04:40:26;;;;;;;6.30;5.70;;;17.10;64.70;;;;;;5012000;28;20214;-87
2021/07/09 04:42:52;;;;;;;8.27;5.43;;;17.10;61.40;;;;;;5012657;28;20190;-88
2021/07/09 04:45:18;;;;;;;5.67;5.03;;;17.20;59.50;;;;;;5011097;28;20190;-88
2021/07/09 04:47:44;;;;;;;5.67;5.07;;;17.20;59.80;;;;;;5012388;28;20194;-88
2021/07/09 04:50:10;;;;;;;5.43;4.87;;;17.20;58.50;;;;;;5024847;28;20248;-89
2021/07/09 04:52:36;;;;;;;5.97;5.13;;;17.30;58.90;;;;;;5008302;28;20193;-89
2021/07/09 04:55:02;;;;;;;6.63;5.27;;;17.20;58.60;;;;;;5020301;28;20192;-87
2021/07/09 04:57:28;;;;;;;5.97;5.37;;;;;;;;;;5028219;28;20658;-88
2021/07/09 04:59:54;;;;;;;6.87;5.57;;;17.30;59.40;;;;;;5005896;28;20213;-87
2021/07/09 05:02:20;;;;;;;6.13;5.50;;;17.50;61.70;;;;;;5017615;28;20197;-88
2021/07/09 05:04:46;;;;;;;6.93;5.90;;;17.40;62.60;;;;;;5018534;28;20605;-87
2021/07/09 05:07:11;;;;;;;7.70;6.00;;;17.40;66.10;;;;;;5022985;28;20710;-88
2021/07/09 05:09:37;;;;;;;6.40;5.80;;;;;;;;;;5006677;28;20197;-88
2021/07/09 05:12:03;;;;;;;9.70;6.30;;;17.20;68.60;;;;;;5012594;28;20191;-87
2021/07/09 05:14:29;;;;;;;6.57;5.80;;;17.10;71.30;;;;;;5000599;28;20213;-87
2021/07/09 05:16:55;;;;;;;8.27;6.43;;;17.10;73.80;;;;;;5006575;28;20259;-87
2021/07/09 05:19:21;;;;;;;9.17;7.00;;;17.00;74.30;;;;;;5024420;28;20222;-87
2021/07/09 05:21:47;;;;;;;7.73;6.93;;;17.00;74.80;;;;;;5018465;28;20551;-88
2021/07/09 05:24:13;;;;;;;9.80;6.80;;;17.00;76.10;;;;;;5004920;28;20194;-87
2021/07/09 05:26:42;;;;;;;8.60;7.67;;;17.00;77.60;;;;;;5004569;28;20192;-87
2021/07/09 05:29:08;;;;;;;8.37;7.27;;;16.90;78.60;;;;;;5012229;28;20198;-87
2021/07/09 05:31:41;;;;;;;7.50;6.70;;;17.00;79.30;;;;;;5017896;28;20207;-87
2021/07/09 05:34:07;;;;;;;7.47;6.73;;;17.00;77.60;;;;;;5003162;28;20198;-87
2021/07/09 05:36:32;;;;;;;8.30;7.50;;;17.00;78.20;;;;;;5012823;28;20218;-88
2021/07/09 05:38:58;;;;;;;8.73;7.73;;;17.00;78.80;;;;;;5020719;28;20240;-86
2021/07/09 05:41:24;;;;;;;9.50;8.60;;;17.00;78.20;;;;;;5001342;28;20210;-87
2021/07/09 05:43:50;;;;;;;9.27;8.23;;;;;;;;;;5008086;28;20993;-88
2021/07/09 05:46:16;;;;;;;9.53;8.53;;;;;;;;;;5025444;28;20686;-87
2021/07/09 05:48:42;;;;;;;10.13;7.30;;;;;;;;;;5023237;28;20207;-86
2021/07/09 05:51:08;;;;;;;8.23;7.43;;;16.90;73.80;;;;;;5028395;28;21140;-87
2021/07/09 05:53:33;;;;;;;10.30;7.80;;;16.90;76.40;;;;;;5007643;28;20278;-87
2021/07/09 05:55:59;;;;;;;10.37;7.67;;;;;;;;;;5003759;28;20231;-87
2021/07/09 05:58:25;;;;;;;8.23;7.43;;;16.90;71.20;;;;;;5023770;28;20654;-87
2021/07/09 06:00:52;;;;;;;8.70;7.13;;;16.90;73.30;;;;;;5003030;28;20221;-86
2021/07/09 06:03:17;;;;;;;8.03;7.23;;;16.90;73.80;;;;;;4998623;28;20250;-88
2021/07/09 06:05:43;;;;;;;8.77;7.70;;;17.00;74.50;;;;;;5003788;28;20283;-86
2021/07/09 06:08:09;;;;;;;17.30;7.70;;;17.00;74.50;;;;;;5021878;28;20195;-86
2021/07/09 06:10:35;;;;;;;9.07;7.00;;;17.00;72.70;;;;;;5008775;28;20255;-85
2021/07/09 06:13:02;;;;;;;8.53;7.13;;;17.10;72.40;;;;;;5004383;28;20211;-87
2021/07/09 06:15:28;;;;;;;8.27;7.40;;;17.10;73.00;;;;;;5016532;28;20304;-87
2021/07/09 06:17:54;;;;;;;8.37;7.60;;;17.00;70.10;;;;;;5002199;28;20196;-87
2021/07/09 06:20:20;;;;;;;10.23;8.60;;;17.00;68.30;;;;;;5020587;28;20216;-86
2021/07/09 06:22:47;;;;;;;10.40;8.67;;;17.10;66.30;;;;;;5007142;28;20234;-89
2021/07/09 06:25:14;;;;;;;10.50;8.00;;;17.40;67.00;;;;;;5017529;28;20176;-91
2021/07/09 06:27:42;;;;;;;12.27;7.47;;;;;;;;;;5019637;28;20189;-90
2021/07/09 06:30:17;;;;;;;8.70;7.53;;;17.60;61.40;;;;;;5018104;28;20190;-90
2021/07/09 06:32:58;;;;;;;7.57;6.77;;;17.60;62.70;;;;;;4981812;28;20210;-90
2021/07/09 06:35:33;;;;;;;10.47;7.50;;;17.70;62.00;;;;;;4974459;28;20274;-90
2021/07/09 06:38:01;;;;;;;8.23;6.77;;;;;;;;;;4969168;28;20199;-89
2021/07/09 06:40:27;;;;;;;8.67;6.73;;;;;;;;;;5029219;28;20195;-90
2021/07/09 06:42:54;;;;;;;9.07;7.70;;;;;;;;;;5013728;28;20200;-90
2021/07/09 06:45:20;;;;;;;9.03;7.53;;;;;;;;;;5014307;28;20193;-89
2021/07/09 06:47:47;;;;;;;8.80;7.97;;;;;;;;;;5033106;28;20230;-90
2021/07/09 06:50:27;;;;;;;9.13;8.07;;;;;;;;;;5024817;28;20209;-90
2021/07/09 06:52:53;;;;;;;8.90;8.00;;;;;;;;;;4959180;28;20266;-90
2021/07/09 06:55:22;;;;;;;10.30;7.97;;;17.60;63.00;;;;;;5012326;28;20261;-90
2021/07/09 06:58:04;;;;;;;8.70;7.83;;;17.60;62.80;;;;;;4990729;28;20285;-90
2021/07/09 07:00:31;;;;;;;9.20;7.47;;;17.50;63.70;;;;;;4983191;28;20296;-90
2021/07/09 07:02:58;;;;;;;10.67;7.47;;;;;;;;;;4979362;28;20209;-91
2021/07/09 07:05:23;;;;;;;9.00;8.07;;;17.60;63.60;;;;;;5004942;28;20201;-89
2021/07/09 07:07:49;;;;;;;8.27;7.27;;;17.60;66.50;;;;;;5004382;28;20203;-89
2021/07/09 07:10:16;;;;;;;8.90;8.00;;;17.70;66.80;;;;;;5002743;28;20293;-89
2021/07/09 07:12:42;;;;;;;9.57;7.97;;;17.80;63.30;;;;;;5010668;28;20183;-88
2021/07/09 07:15:10;;;;;;;9.93;8.93;;;17.80;61.30;;;;;;5006486;28;20207;-89
2021/07/09 07:17:37;;;;;;;9.57;8.57;;;17.80;60.40;;;;;;5003569;28;20542;-88
2021/07/09 07:20:05;;;;;;;11.73;8.73;;;17.80;61.00;;;;;;5009660;28;20185;-88
2021/07/09 07:22:32;;;;;;;12.10;9.23;;;17.80;60.90;;;;;;5008020;28;20180;-88
2021/07/09 07:24:58;;;;;;;9.33;7.80;;;;;;;;;;5001653;28;20195;-88
2021/07/09 07:27:27;;;;;;;10.43;8.27;;;18.10;61.70;;;;;;5011101;28;20196;-88
2021/07/09 07:29:55;;;;;;;8.93;8.00;;;18.20;60.70;;;;;;5029373;28;20212;-87
2021/07/09 07:32:21;;;;;;;8.67;7.73;;;18.20;60.50;;;;;;5010268;28;20203;-88
2021/07/09 07:34:47;;;;;;;8.10;7.30;;;18.20;58.30;;;;;;4994616;28;20599;-88
2021/07/09 07:37:13;;;;;;;8.87;7.97;;;18.20;59.60;;;;;;5004597;28;20222;-88
2021/07/09 07:39:39;;;;;;;10.67;8.57;;;18.10;57.60;;;;;;4986139;28;20192;-88
2021/07/09 07:42:05;;;;;;;9.20;8.17;;;18.10;59.20;;;;;;4997894;28;20578;-88
2021/07/09 07:44:32;;;;;;;12.33;8.90;;;18.20;61.80;;;;;;5005388;28;20189;-88
2021/07/09 07:47:02;;;;;;;11.43;9.80;;;;;;;;;;4964158;28;20218;-88
2021/07/09 07:49:29;;;;;;;10.20;8.57;;;;;;;;;;5027723;28;20217;-88
2021/07/09 07:52:06;;;;;;;16.40;9.83;;;;;;;;;;5007104;28;20204;-89
2021/07/09 07:54:32;;;;;;;10.90;9.27;;;;;;;;;;5012832;28;20262;-88
2021/07/09 07:56:59;;;;;;;12.57;10.57;;;;;;;;;;5011049;28;20215;-88
2021/07/09 07:59:26;;;;;;;17.77;11.17;;;;;;;;;;5014461;28;20237;-88
2021/07/09 08:01:52;;;;;;;12.77;11.40;;;;;;;;;;5015161;28;20756;-88
2021/07/09 08:04:18;;;;;;;11.70;10.50;;;;;;;;;;5019586;28;20192;-88
2021/07/09 08:06:47;;;;;;;14.23;12.00;;;18.50;62.10;;;;;;5016670;28;20210;-88
2021/07/09 08:09:21;;;;;;;13.27;11.93;;;18.50;59.60;;;;;;5017444;28;20221;-88
2021/07/09 08:12:00;;;;;;;15.23;11.67;;;18.50;58.50;;;;;;5030197;28;20194;-88
2021/07/09 08:14:29;;;;;;;11.70;10.50;;;18.50;57.70;;;;;;5016690;28;20273;-89
2021/07/09 08:16:56;;;;;;;16.23;12.17;;;;;;;;;;5032995;28;20528;-88
2021/07/09 08:19:23;;;;;;;15.63;12.47;;;;;;;;;;5010358;28;20227;-88
2021/07/09 08:21:50;;;;;;;18.37;12.80;;;18.50;55.60;;;;;;5024314;28;20276;-89
2021/07/09 08:24:18;;;;;;;16.03;12.93;;;18.50;55.70;;;;;;5027928;28;20203;-88
2021/07/09 08:26:44;;;;;;;21.17;13.60;;;;;;;;;;5008365;28;20195;-89
2021/07/09 08:29:10;;;;;;;17.57;13.73;;;;;;;;;;5010059;28;20281;-89
2021/07/09 08:31:36;;;;;;;20.03;12.83;;;;;;;;;;5000014;28;20512;-88
2021/07/09 08:34:03;;;;;;;16.20;12.33;;;;;;;;;;5010119;28;20200;-89
2021/07/09 08:36:34;;;;;;;13.80;12.13;;;;;;;;;;5018674;28;20199;-88
2021/07/09 08:39:16;;;;;;;17.73;12.30;;;;;;;;;;5029437;28;20215;-88
2021/07/09 08:41:43;;;;;;;12.97;11.57;;;;;;;;;;5008768;28;20196;-88
2021/07/09 08:44:09;;;;;;;12.70;11.17;;;;;;;;;;5007940;28;20192;-88
2021/07/09 08:46:37;;;;;;;13.60;11.30;;;;;;;;;;5001720;28;20194;-88
2021/07/09 08:49:03;;;;;;;13.43;10.80;;;;;;;;;;5011256;28;20258;-88
2021/07/09 08:51:29;;;;;;;12.23;10.93;;;;;;;;;;5016238;28;20198;-89
2021/07/09 08:53:55;;;;;;;15.70;11.63;;;;;;;;;;5015616;28;20219;-88
2021/07/09 08:56:42;;;;;;;11.30;10.00;;;19.10;45.00;;;;;;5014932;28;20223;-87
2021/07/09 08:59:10;;;;;;;11.93;10.50;;;;;;;;;;5023167;28;20193;-88
2021/07/09 09:01:58;;;;;;;14.93;10.73;;;19.10;44.00;;;;;;5007716;28;20274;-89
2021/07/09 09:04:32;;;;;;;12.53;10.37;;;19.10;45.10;;;;;;5006584;28;20193;-88
2021/07/09 09:07:08;;;;;;;12.37;10.03;;;19.20;47.30;;;;;;4993686;28;20589;-88
2021/07/09 09:09:39;;;;;;;11.73;10.53;;;19.20;45.60;;;;;;4993290;28;20573;-88
2021/07/09 09:12:09;;;;;;;12.03;10.70;;;19.30;43.00;;;;;;5021309;28;20638;-88
2021/07/09 09:14:39;;;;;;;12.97;10.03;;;19.30;44.60;;;;;;5021285;28;20211;-88
2021/07/09 09:17:36;;;;;;;11.47;10.13;;;19.30;44.70;;;;;;5023274;28;20291;-87
2021/07/09 09:20:05;;;;;;;13.70;10.73;;;19.50;40.70;;;;;;5004339;28;20191;-87
2021/07/09 09:22:34;;;;;;;11.73;9.90;;;19.40;41.90;;;;;;5022677;28;20187;-88
2021/07/09 09:25:00;;;;;;;12.07;9.70;;;19.50;41.30;;;;;;4996298;28;20205;-88
2021/07/09 09:27:26;;;;;;;13.87;9.90;;;19.60;39.30;;;;;;5015736;28;20329;-88
2021/07/09 09:29:51;;;;;;;11.47;9.00;;;19.60;39.00;;;;;;5006541;28;20242;-88
2021/07/09 09:32:18;;;;;;;13.67;10.70;;;19.70;39.20;;;;;;4999791;28;20295;-87
2021/07/09 09:34:48;;;;;;;12.07;9.93;;;19.70;38.60;;;;;;5002908;28;20206;-89
2021/07/09 09:37:24;;;;;;;11.83;10.03;;;19.60;38.20;;;;;;5004489;28;20226;-86
2021/07/09 09:39:50;;;;;;;11.43;9.93;;;19.80;39.70;;;;;;5003856;28;20279;-88
2021/07/09 09:42:25;;;;;;;11.87;9.67;;;19.80;40.30;;;;;;5007515;28;20197;-88
2021/07/09 09:44:51;;;;;;;11.50;10.03;;;;;;;;;;5025821;28;20614;-88
2021/07/09 09:47:22;;;;;;;12.20;9.53;;;20.00;38.20;;;;;;5021086;28;20193;-88
2021/07/09 09:49:56;;;;;;;12.27;9.13;;;20.10;37.90;;;;;;5007748;28;20201;-87
2021/07/09 09:52:39;;;;;;;11.97;9.70;;;20.30;35.20;;;;;;5001059;28;20186;-87
2021/07/09 09:55:09;;;;;;;10.83;9.13;;;20.20;33.60;;;;;;4992325;28;20595;-85
2021/07/09 09:57:40;;;;;;;11.33;9.50;;;20.30;35.70;;;;;;5011536;28;20720;-88
2021/07/09 10:00:10;;;;;;;12.33;9.40;;;20.40;32.20;;;;;;5007992;28;20242;-88
2021/07/09 10:02:37;;;;;;;11.40;8.53;;;20.40;32.80;;;;;;5014443;28;20193;-85
2021/07/09 10:05:04;;;;;;;10.37;9.10;;;20.40;32.20;;;;;;4999446;28;20195;-86
2021/07/09 10:07:35;;;;;;;9.53;8.53;;;20.30;31.30;;;;;;5007302;28;20326;-84
2021/07/09 10:10:04;;;;;;;9.67;8.60;;;20.30;32.00;;;;;;5001046;28;20195;-85
2021/07/09 10:12:31;;;;;;;10.50;8.93;;;20.40;32.70;;;;;;5000474;28;20201;-86
2021/07/09 10:14:58;;;;;;;11.17;9.20;;;20.50;30.50;;;;;;5017677;28;20238;-86
2021/07/09 10:17:26;;;;;;;9.93;8.93;;;20.40;31.60;;;;;;5001735;28;20219;-87
2021/07/09 10:19:54;;;;;;;9.20;8.17;;;20.50;30.80;;;;;;5004457;28;20266;-86
2021/07/09 10:22:20;;;;;;;9.37;8.37;;;20.50;28.60;;;;;;5001921;28;20670;-86
2021/07/09 10:24:49;;;;;;;8.37;7.57;;;20.60;28.20;;;;;;4994849;28;20228;-88
2021/07/09 10:27:20;;;;;;;14.17;8.90;;;20.60;25.80;;;;;;5006862;28;20189;-87
2021/07/09 10:29:48;;;;;;;7.63;6.93;;;20.70;26.00;;;;;;5008296;28;20198;-87
2021/07/09 10:32:30;;;;;;;9.30;8.40;;;20.60;26.40;;;;;;5004136;28;20261;-85
2021/07/09 10:34:56;;;;;;;11.93;7.90;;;20.80;27.50;;;;;;4996221;28;20192;-87
2021/07/09 10:37:23;;;;;;;9.00;7.30;;;21.00;23.90;;;;;;5006721;28;20210;-86
2021/07/09 10:39:51;;;;;;;8.93;8.03;;;21.00;24.40;;;;;;4989726;28;20304;-87
2021/07/09 10:42:24;;;;;;;9.80;8.00;;;21.00;25.10;;;;;;5018681;28;20317;-88
2021/07/09 10:44:59;;;;;;;8.20;7.40;;;21.30;25.10;;;;;;4998017;28;24516;-86
2021/07/09 10:48:02;;;;;;;8.80;8.00;;;21.50;20.50;;;;;;5007640;28;20249;-88
2021/07/09 10:50:46;;;;;;;7.70;6.87;;;21.50;17.40;;;;;;5004245;28;20787;-84
2021/07/09 10:53:15;;;;;;;7.17;6.47;;;21.50;18.40;;;;;;5014651;28;20548;-87
2021/07/09 10:55:43;;;;;;;8.23;6.97;;;21.60;18.40;;;;;;5015091;28;20214;-87
2021/07/09 10:58:09;;;;;;;7.83;7.03;;;21.70;18.50;;;;;;5013790;28;20196;-87
2021/07/09 11:00:41;;;;;;;8.53;6.10;;;22.00;19.90;;;;;;5017723;28;20295;-87
2021/07/09 11:03:09;;;;;;;8.30;6.07;;;22.30;20.10;;;;;;5004777;28;20180;-87
2021/07/09 11:05:44;;;;;;;7.30;6.60;;;22.30;14.50;;;;;;5011755;28;20189;-87
2021/07/09 11:11:14;;;;;;;6.30;5.80;;;22.70;14.30;;;;;;5029851;28;20208;-87
2021/07/09 11:13:39;;;;;;;7.07;6.13;;;22.70;14.80;;;;;;5008724;28;20190;-87
2021/07/09 11:16:33;;;;;;;7.70;6.37;;;22.90;14.90;;;;;;4996955;28;20217;-87
2021/07/09 11:19:08;;;;;;;6.20;5.60;;;23.20;13.80;;;;;;5017435;28;20273;-87
2021/07/09 11:21:36;;;;;;;5.80;5.30;;;23.20;11.10;;;;;;5021626;28;20176;-87
2021/07/09 11:24:14;;;;;;;6.63;6.03;;;23.60;11.40;;;;;;5009340;28;20231;-88
2021/07/09 11:26:57;;;;;;;6.20;4.68;;;23.90;7.50;;;;;;5007105;28;20193;-88
2021/07/09 11:30:01;;;;;;;5.28;4.78;;;24.70;1.30;;;;;;4992092;28;20596;-87
2021/07/09 11:32:27;;;;;;;5.30;4.80;;;24.70;1.60;;;;;;4952919;28;20277;-87
2021/07/09 11:34:55;;;;;;;6.80;5.23;;;24.60;2.40;;;;;;4948484;28;20229;-88
2021/07/09 11:37:38;;;;;;;5.43;4.63;;;24.00;4.60;;;;;;4948924;28;20238;-87
2021/07/09 11:40:07;;;;;;;4.83;4.30;;;23.80;2.20;;;;;;4953077;28;20246;-87
2021/07/09 11:42:35;;;;;;;5.17;3.90;;;23.80;3.40;;;;;;4952798;29;20187;-87
2021/07/09 11:45:06;;;;;;;7.07;3.53;;;23.90;3.10;;;;;;4963749;28;20264;-88
2021/07/09 11:47:33;;;;;;;4.50;3.80;;;24.40;2.20;;;;;;4971466;28;20207;-86
2021/07/09 11:50:00;;;;;;;4.93;4.13;;;24.60;1.00;;;;;;4957077;28;20287;-86
2021/07/09 11:52:35;;;;;;;4.10;3.78;;;24.60;1.00;;;;;;4953278;28;20212;-86
2021/07/09 11:55:05;;;;;;;3.67;3.38;;;24.60;1.00;;;;;;4948751;28;20171;-86
2021/07/09 11:57:35;;;;;;;3.80;3.50;;;24.40;1.00;;;;;;4958678;28;20219;-87
2021/07/09 12:00:01;;;;;;;4.25;3.40;;;24.70;1.00;;;;;;4947099;28;20229;-86
2021/07/09 12:02:28;;;;;;;4.28;3.28;;;24.70;1.00;;;;;;4941428;28;20197;-86
2021/07/09 12:05:03;;;;;;;6.90;3.78;;;24.80;1.00;;;;;;4947248;28;20192;-88
2021/07/09 12:08:12;;;;;;;4.10;3.30;;;24.60;1.00;;;;;;4961451;28;20223;-87
2021/07/09 12:10:42;;;;;;;6.70;3.50;;;25.00;1.00;;;;;;4979530;28;20279;-89
2021/07/09 12:13:08;;;;;;;3.30;3.00;;;25.10;1.00;;;;;;5021547;28;20201;-88
2021/07/09 12:15:38;;;;;;;3.58;3.00;;;25.30;1.00;;;;;;5021491;28;20221;-88
2021/07/09 12:18:17;;;;;;;4.20;3.15;;;25.50;1.00;;;;;;5007878;28;20192;-88
2021/07/09 12:20:48;;;;;;;3.63;3.33;;;26.00;1.00;;;;;;4941099;28;20210;-88
2021/07/09 12:23:21;;;;;;;2.53;2.33;;;26.00;1.00;;;;;;5002983;28;20187;-90
2021/07/09 12:25:57;;;;;;;3.92;2.90;;;26.70;1.00;;;;;;5001662;28;20200;-87
2021/07/09 12:28:29;;;;;;;2.90;2.65;;;26.60;1.00;;;;;;5020652;28;20852;-88
2021/07/09 12:30:57;;;;;;;4.43;2.85;;;26.20;1.00;;;;;;5006502;28;20196;-88
2021/07/09 12:33:30;;;;;;;3.85;2.75;;;26.70;1.00;;;;;;5012965;28;20191;-88
2021/07/09 12:36:09;;;;;;;3.47;2.70;;;26.70;1.00;;;;;;5017900;28;20212;-88
2021/07/09 12:38:39;;;;;;;2.85;2.65;;;26.10;1.00;;;;;;5009491;28;20191;-87
2021/07/09 12:41:10;;;;;;;3.42;2.85;;;26.30;1.00;;;;;;5030971;28;20195;-88
2021/07/09 12:43:46;;;;;;;3.83;2.72;;;26.20;1.00;;;;;;4998616;28;20191;-87
2021/07/09 12:46:20;;;;;;;3.00;2.80;;;25.80;1.00;;;;;;5014068;28;20263;-88
2021/07/09 12:48:54;;;;;;;3.67;2.55;;;25.60;1.00;;;;;;5007529;28;20252;-88
2021/07/09 12:51:46;;;;;;;2.83;2.63;;;25.50;1.00;;;;;;5005336;28;20228;-87
2021/07/09 12:54:14;;;;;;;3.30;3.10;;;25.10;1.00;;;;;;5003853;28;20203;-89
2021/07/09 12:56:49;;;;;;;3.40;3.08;;;24.70;1.00;;;;;;5020048;28;20210;-87
2021/07/09 12:59:22;;;;;;;3.92;2.92;;;24.40;1.00;;;;;;5005733;28;20185;-88
2021/07/09 13:02:07;;;;;;;3.95;3.30;;;24.40;1.00;;;;;;5004016;28;20194;-89
2021/07/09 13:04:36;;;;;;;3.53;2.92;;;24.40;1.00;;;;;;4945919;28;20221;-88
2021/07/09 13:07:10;;;;;;;3.28;2.97;;;24.50;1.00;;;;;;4931140;28;20215;-88
2021/07/09 13:09:40;;;;;;;4.75;3.20;;;24.70;1.00;;;;;;4959501;28;20317;-88
2021/07/09 13:12:15;;;;;;;5.20;3.58;;;24.90;1.00;;;;;;4958926;28;20200;-88